Time;durP1;ratioP1;P1;durP2;ratioP2;P2;SDS_P1;SDS_P2;PMS_P1;PMS_P2;Temp;Humidity;BMP_temperature;BMP_pressure;BME280_temperature;BME280_humidity;BME280_pressure;Samples;Min_cycle;Max_cycle;Signal;HPM_P1;HPM_P2
2022/10/30 00:00:39;;;;;;;10.15;8.40;;;;;;;14.00;82.66;99491.22;1802221;78;21034;-79
2022/10/30 00:03:13;;;;;;;10.75;7.60;;;;;;;13.96;82.69;99487.62;1820170;78;22355;-80
2022/10/30 00:05:46;;;;;;;10.50;7.47;;;;;;;13.99;82.59;99487.73;1799158;78;21049;-80
2022/10/30 00:08:13;;;;;;;11.87;8.27;;;;;;;14.06;82.37;99491.28;1807104;79;21037;-80
2022/10/30 00:10:40;;;;;;;12.15;8.23;;;;;;;14.04;82.25;99486.64;1808699;78;21246;-77
2022/10/30 00:13:09;;;;;;;17.62;8.90;;;;;;;14.00;82.25;99493.89;1817396;77;21048;-79
2022/10/30 00:15:37;;;;;;;9.35;7.20;;;;;;;13.96;82.26;99504.98;1816923;78;20987;-78
2022/10/30 00:18:04;;;;;;;11.68;7.22;;;;;;;14.01;82.09;99494.22;1804946;78;21028;-79
2022/10/30 00:20:30;;;;;;;11.45;8.00;;;;;;;14.05;81.92;99503.48;1808006;78;21002;-81
2022/10/30 00:22:58;;;;;;;13.03;7.72;;;;;;;13.99;81.91;99503.76;1811426;78;21210;-80
2022/10/30 00:25:25;;;;;;;11.38;7.22;;;;;;;13.94;81.96;99494.16;1773653;80;20989;-82
2022/10/30 00:27:51;;;;;;;12.53;7.37;;;;;;;13.93;81.98;99501.36;1779857;79;21031;-80
2022/10/30 00:30:19;;;;;;;11.08;7.25;;;;;;;13.98;81.77;99498.09;1757321;80;21510;-81
2022/10/30 00:32:45;;;;;;;13.43;8.08;;;;;;;13.97;81.70;99483.10;1758046;80;21058;-81
2022/10/30 00:35:12;;;;;;;10.30;7.83;;;;;;;13.93;81.68;99479.18;1772177;80;21527;-81
2022/10/30 00:37:39;;;;;;;13.08;7.00;;;;;;;13.89;81.63;99481.41;1769835;80;20944;-80
2022/10/30 00:40:07;;;;;;;9.10;6.58;;;;;;;13.91;81.54;99483.89;1779319;80;21042;-82
2022/10/30 00:42:33;;;;;;;11.78;7.67;;;;;;;13.98;81.17;99474.57;1752204;79;21054;-83
2022/10/30 00:45:00;;;;;;;11.45;7.42;;;;;;;13.93;80.88;99484.00;1742491;82;21078;-81
2022/10/30 00:47:33;;;;;;;10.82;7.10;;;;;;;13.87;80.80;99480.78;1750966;80;21867;-83
2022/10/30 00:50:31;;;;;;;10.63;6.80;;;;;;;13.80;80.46;99481.77;1762926;80;21069;-80
2022/10/30 00:53:10;;;;;;;12.65;7.65;;;;;;;13.81;80.51;99478.91;1753993;80;21108;-83
2022/10/30 00:55:54;;;;;;;13.95;7.17;;;;;;;13.84;80.35;99479.83;1751129;80;21076;-78
2022/10/30 00:58:24;;;;;;;;;;;;;;;13.79;80.09;99480.95;1768498;80;21601;-84
2022/10/30 01:00:52;;;;;;;11.73;7.37;;;;;;;13.72;80.21;99489.41;1764895;80;21113;-83
2022/10/30 01:03:20;;;;;;;11.40;6.35;;;;;;;13.69;80.18;99488.45;1766967;80;21044;-81
2022/10/30 01:05:50;;;;;;;13.35;7.62;;;;;;;13.77;80.02;99498.97;1806428;78;21063;-81
2022/10/30 01:08:18;;;;;;;11.20;7.67;;;;;;;13.78;79.85;99491.30;1756902;81;21081;-82
2022/10/30 01:10:45;;;;;;;12.43;7.20;;;;;;;13.74;79.70;99490.04;1754686;80;21009;-83
2022/10/30 01:13:11;;;;;;;10.40;6.62;;;;;;;13.68;79.67;99489.48;1762911;80;21132;-81
2022/10/30 01:15:43;;;;;;;10.48;7.05;;;;;;;13.64;79.85;99494.91;1757618;80;21002;-82
2022/10/30 01:18:28;;;;;;;8.65;6.25;;;;;;;13.70;79.69;99486.92;1764665;80;21057;-82
2022/10/30 01:21:34;;;;;;;10.08;6.75;;;;;;;13.70;79.58;99490.12;1749593;81;21011;-79
2022/10/30 01:24:35;;;;;;;9.50;7.00;;;;;;;13.63;79.71;99483.37;1766863;81;21078;-83
2022/10/30 01:27:47;;;;;;;11.08;6.62;;;;;;;13.55;79.75;99475.52;1739961;82;21202;-83
2022/10/30 01:30:34;;;;;;;10.72;6.42;;;;;;;13.59;79.86;99469.30;1739779;81;21124;-81
2022/10/30 01:33:29;;;;;;;11.35;6.50;;;;;;;13.59;79.71;99455.95;1765826;80;21093;-81
2022/10/30 01:36:16;;;;;;;12.10;7.15;;;;;;;13.51;79.79;99452.39;1750389;80;21085;-82
2022/10/30 01:38:57;;;;;;;8.48;6.22;;;;;;;13.45;79.92;99448.36;1754971;80;21068;-79
2022/10/30 01:41:25;;;;;;;8.83;6.67;;;;;;;13.47;79.91;99457.00;1769681;80;21300;-82
2022/10/30 01:43:56;;;;;;;11.48;6.58;;;;;;;13.53;79.77;99466.38;1765611;80;21009;-80
2022/10/30 01:46:37;;;;;;;21.42;7.42;;;;;;;13.49;79.75;99471.78;1767536;80;21052;-81
2022/10/30 01:49:22;;;;;;;7.22;6.05;;;;;;;13.46;79.75;99478.86;1777625;80;21504;-81
2022/10/30 01:52:21;;;;;;;10.23;6.17;;;;;;;13.41;79.80;99475.94;1752795;80;21033;-80
2022/10/30 01:55:25;;;;;;;9.75;6.33;;;;;;;13.45;79.71;99473.71;1760495;80;21172;-80
2022/10/30 01:58:13;;;;;;;8.33;6.72;;;;;;;13.49;79.58;99483.79;1770251;80;26253;-79
2022/10/30 02:00:40;;;;;;;12.70;6.95;;;;;;;13.42;79.67;99486.09;1737008;80;21034;-81
2022/10/30 02:03:07;;;;;;;10.35;6.72;;;;;;;13.35;79.76;99481.53;1757502;80;21120;-78
2022/10/30 02:05:44;;;;;;;11.55;6.50;;;;;;;13.37;79.90;99478.16;1760512;81;21060;-83
2022/10/30 02:08:11;;;;;;;11.30;6.65;;;;;;;13.42;79.69;99467.41;1841643;78;21263;-84
2022/10/30 02:10:39;;;;;;;10.25;6.35;;;;;;;13.35;79.76;99460.19;1825067;77;20942;-83
2022/10/30 02:13:05;;;;;;;8.88;5.90;;;;;;;13.31;79.93;99480.78;1808438;77;20926;-81
2022/10/30 02:15:32;;;;;;;9.20;6.08;;;;;;;13.32;80.01;99487.75;1827635;77;21017;-82
2022/10/30 02:17:59;;;;;;;8.78;5.53;;;;;;;13.40;79.91;99493.47;1851923;75;20886;-83
2022/10/30 02:20:27;;;;;;;10.20;6.25;;;;;;;13.39;79.85;99498.50;1824997;77;21141;-84
2022/10/30 02:22:54;;;;;;;7.80;5.67;;;;;;;13.35;79.90;99494.05;1845659;77;20990;-82
2022/10/30 02:25:20;;;;;;;7.80;6.17;;;;;;;13.31;79.98;99495.45;1785491;79;21044;-80
2022/10/30 02:27:47;;;;;;;9.90;5.65;;;;;;;13.28;80.04;99499.28;1781604;80;21006;-80
2022/10/30 02:30:13;;;;;;;10.55;6.00;;;;;;;13.34;79.95;99491.05;1794705;79;21022;-81
2022/10/30 02:32:40;;;;;;;9.60;6.00;;;;;;;13.37;79.83;99502.69;1787702;79;21129;-81
2022/10/30 02:35:08;;;;;;;8.25;5.50;;;;;;;13.32;79.87;99495.76;1790319;80;20973;-81
2022/10/30 02:37:35;;;;;;;10.78;6.37;;;;;;;13.24;80.01;99511.36;1773135;80;21251;-82
2022/10/30 02:40:04;;;;;;;11.33;6.15;;;;;;;13.18;80.18;99525.46;1815995;77;21074;-83
2022/10/30 02:42:31;;;;;;;9.75;6.45;;;;;;;13.22;80.19;99508.57;1821905;78;21025;-84
2022/10/30 02:44:57;;;;;;;11.33;6.22;;;;;;;13.26;80.07;99516.51;1813745;78;21838;-83
2022/10/30 02:47:25;;;;;;;10.80;6.05;;;;;;;13.21;80.17;99526.91;1822547;78;21025;-82
2022/10/30 02:49:51;;;;;;;8.48;6.03;;;;;;;13.15;80.35;99520.49;1819448;78;20997;-82
2022/10/30 02:52:18;;;;;;;8.95;5.53;;;;;;;13.10;80.45;99525.08;1801719;78;21014;-83
2022/10/30 02:54:45;;;;;;;7.05;5.50;;;;;;;13.13;80.47;99530.05;1798382;78;21034;-82
2022/10/30 02:57:11;;;;;;;11.35;6.85;;;;;;;13.17;80.39;99527.31;1817020;77;21253;-81
2022/10/30 02:59:38;;;;;;;11.88;6.97;;;;;;;13.14;80.42;99526.34;1818088;77;21493;-83
2022/10/30 03:02:05;;;;;;;12.33;6.00;;;;;;;13.05;80.49;99521.33;1819719;77;21076;-82
2022/10/30 03:04:31;;;;;;;11.40;6.35;;;;;;;13.05;80.64;99524.81;1804113;77;21020;-83
2022/10/30 03:06:58;;;;;;;10.70;6.75;;;;;;;13.07;80.63;99526.77;1846426;77;20951;-83
2022/10/30 03:09:25;;;;;;;11.40;5.47;;;;;;;13.13;80.47;99523.38;1824377;77;21516;-83
2022/10/30 03:11:52;;;;;;;11.55;5.47;;;;;;;13.11;80.43;99514.70;1810429;78;21456;-82
2022/10/30 03:14:21;;;;;;;8.30;5.78;;;;;;;13.06;80.55;99524.33;1821561;77;21059;-82
2022/10/30 03:16:48;;;;;;;9.63;6.60;;;;;;;13.03;80.63;99524.69;1857473;77;21000;-83
2022/10/30 03:19:15;;;;;;;8.08;4.92;;;;;;;12.98;80.67;99518.09;1809224;77;21083;-83
2022/10/30 03:21:43;;;;;;;13.90;6.35;;;;;;;13.02;80.66;99512.36;1813530;77;21142;-85
2022/10/30 03:24:11;;;;;;;9.05;5.22;;;;;;;13.07;80.56;99509.95;1821931;77;21052;-84
2022/10/30 03:26:38;;;;;;;14.10;5.90;;;;;;;13.02;80.62;99515.88;1808152;77;21045;-84
2022/10/30 03:29:06;;;;;;;7.42;5.80;;;;;;;12.97;80.74;99516.94;1816191;77;21000;-83
2022/10/30 03:31:33;;;;;;;8.60;5.30;;;;;;;12.91;80.86;99520.36;1819746;77;21052;-83
2022/10/30 03:34:01;;;;;;;12.23;5.03;;;;;;;12.91;81.04;99523.03;1792528;77;21615;-84
2022/10/30 03:36:28;;;;;;;8.90;5.22;;;;;;;12.94;80.93;99524.81;1816546;77;21025;-81
2022/10/30 03:38:55;;;;;;;11.25;6.25;;;;;;;12.90;81.03;99534.69;1796793;77;21060;-83
2022/10/30 03:41:23;;;;;;;8.35;5.78;;;;;;;12.88;81.15;99538.88;1833536;77;21048;-83
2022/10/30 03:43:50;;;;;;;8.05;4.53;;;;;;;12.87;81.18;99540.42;1811751;77;21035;-83
2022/10/30 03:46:16;;;;;;;8.93;5.05;;;;;;;12.90;81.06;99534.20;1814043;79;21706;-83
2022/10/30 03:48:43;;;;;;;8.50;5.40;;;;;;;12.98;80.89;99534.60;1813621;77;21217;-83
2022/10/30 03:51:11;;;;;;;10.98;5.53;;;;;;;12.98;80.81;99535.42;1841831;77;20989;-83
2022/10/30 03:53:37;;;;;;;11.30;5.60;;;;;;;12.92;80.88;99534.84;1825565;77;21083;-80
2022/10/30 03:56:05;;;;;;;9.35;5.72;;;;;;;12.86;80.90;99537.42;1827615;77;21076;-82
2022/10/30 03:58:36;;;;;;;8.38;5.35;;;;;;;12.82;80.99;99528.97;1821056;78;21537;-82
2022/10/30 04:01:04;;;;;;;7.92;5.03;;;;;;;12.86;80.70;99534.23;1826416;78;20994;-79
2022/10/30 04:03:33;;;;;;;7.97;5.30;;;;;;;12.95;80.48;99524.30;1800213;78;21038;-83
2022/10/30 04:06:00;;;;;;;8.55;5.03;;;;;;;12.95;80.45;99529.12;1750089;80;21058;-82
2022/10/30 04:08:26;;;;;;;8.60;5.75;;;;;;;12.94;80.45;99537.30;1755190;81;21010;-83
2022/10/30 04:10:54;;;;;;;7.67;4.75;;;;;;;12.93;80.35;99532.48;1763029;81;21514;-82
2022/10/30 04:13:25;;;;;;;9.23;4.60;;;;;;;12.94;80.27;99526.63;1758549;81;21088;-80
2022/10/30 04:15:54;;;;;;;8.40;4.60;;;;;;;12.96;79.50;99524.60;1774426;79;21533;-81
2022/10/30 04:18:22;;;;;;;7.67;4.70;;;;;;;13.03;79.40;99523.36;1783101;79;21065;-83
2022/10/30 04:20:49;;;;;;;10.15;5.42;;;;;;;13.02;79.12;99527.02;1801601;79;21009;-84
2022/10/30 04:23:18;;;;;;;6.72;4.60;;;;;;;12.99;79.09;99521.05;1770442;79;21134;-82
2022/10/30 04:25:45;;;;;;;7.05;4.28;;;;;;;12.97;78.81;99519.09;1776716;79;20973;-81
2022/10/30 04:28:12;;;;;;;7.10;5.55;;;;;;;12.97;78.77;99521.75;1789476;79;21060;-81
2022/10/30 04:30:39;;;;;;;10.30;4.05;;;;;;;12.96;78.65;99526.78;1760241;79;21021;-80
2022/10/30 04:33:10;;;;;;;8.88;4.62;;;;;;;13.03;78.55;99536.17;1788207;80;20997;-82
2022/10/30 04:35:38;;;;;;;8.73;4.65;;;;;;;13.15;78.25;99536.50;1756084;80;21430;-81
2022/10/30 04:38:09;;;;;;;6.25;4.62;;;;;;;13.16;78.00;99533.64;1760404;81;21013;-81
2022/10/30 04:40:39;;;;;;;7.25;4.83;;;;;;;13.16;77.89;99538.98;1756789;80;21044;-80
2022/10/30 04:43:06;;;;;;;9.10;4.97;;;;;;;13.16;77.63;99540.83;1774369;80;21038;-81
2022/10/30 04:45:33;;;;;;;9.15;4.80;;;;;;;13.14;77.50;99545.02;1782092;79;21572;-81
2022/10/30 04:48:12;;;;;;;8.38;4.62;;;;;;;13.09;77.11;99547.41;1763585;79;21528;-80
2022/10/30 04:50:40;;;;;;;6.53;3.95;;;;;;;13.12;76.98;99548.89;1800239;79;21142;-80
2022/10/30 04:53:16;;;;;;;8.90;4.10;;;;;;;13.21;76.52;99548.25;1773079;80;21022;-80
2022/10/30 04:55:43;;;;;;;5.83;4.10;;;;;;;13.18;76.40;99552.95;1793427;79;21094;-80
2022/10/30 04:58:11;;;;;;;7.08;4.83;;;;;;;13.15;76.32;99556.02;1783048;80;21049;-81
2022/10/30 05:00:40;;;;;;;9.58;4.80;;;;;;;13.13;76.33;99561.20;1791979;78;21473;-79
2022/10/30 05:03:17;;;;;;;8.03;4.78;;;;;;;13.13;76.32;99559.38;1773374;78;21085;-81
2022/10/30 05:05:43;;;;;;;7.30;3.92;;;;;;;13.11;76.13;99557.38;1771129;78;21041;-80
2022/10/30 05:08:10;;;;;;;4.78;3.27;;;;;;;13.12;75.99;99560.90;1734378;82;21038;-82
2022/10/30 05:10:40;;;;;;;6.20;3.52;;;;;;;13.23;75.32;99564.89;1753389;81;21046;-81
2022/10/30 05:13:10;;;;;;;7.90;3.47;;;;;;;13.22;74.57;99568.08;1782367;79;21571;-78
2022/10/30 05:15:38;;;;;;;5.75;3.33;;;;;;;13.17;73.91;99569.98;1788785;79;21006;-82
2022/10/30 05:18:05;;;;;;;8.53;4.08;;;;;;;13.13;72.89;99567.37;1776805;80;20989;-82
2022/10/30 05:20:32;;;;;;;7.25;3.67;;;;;;;13.09;72.85;99575.41;1743243;81;21073;-82
2022/10/30 05:23:00;;;;;;;8.00;3.65;;;;;;;13.04;72.20;99571.17;1750247;80;21519;-82
2022/10/30 05:25:27;;;;;;;6.50;3.77;;;;;;;13.00;72.52;99573.90;1819364;78;22226;-83
2022/10/30 05:28:03;;;;;;;5.25;3.67;;;;;;;12.98;72.14;99580.75;1804765;78;21002;-82
2022/10/30 05:30:33;;;;;;;6.67;3.52;;;;;;;12.97;72.11;99595.08;1775466;79;21604;-83
2022/10/30 05:33:01;;;;;;;4.72;2.83;;;;;;;12.94;71.99;99586.62;1815672;78;21099;-83
2022/10/30 05:35:31;;;;;;;4.60;2.87;;;;;;;12.93;71.37;99584.47;1791385;78;21069;-82
2022/10/30 05:37:59;;;;;;;8.65;3.25;;;;;;;12.99;71.01;99596.23;1813926;77;21083;-84
2022/10/30 05:40:26;;;;;;;5.80;3.40;;;;;;;12.96;71.12;99597.92;1807340;77;21025;-86
2022/10/30 05:42:53;;;;;;;6.45;2.87;;;;;;;12.94;70.77;99600.80;1755521;80;21042;-85
2022/10/30 05:45:20;;;;;;;8.30;3.72;;;;;;;12.91;70.79;99602.50;1818103;78;21437;-86
2022/10/30 05:48:02;;;;;;;7.10;3.25;;;;;;;12.88;70.95;99598.86;1800813;77;21021;-87
2022/10/30 05:50:32;;;;;;;6.58;3.55;;;;;;;12.88;70.78;99600.70;1726823;80;21475;-85
2022/10/30 05:53:18;;;;;;;7.97;3.20;;;;;;;12.84;70.72;99605.58;1817379;77;20978;-85
2022/10/30 05:55:46;;;;;;;6.33;3.12;;;;;;;12.83;70.65;99611.13;1810580;78;21076;-86
2022/10/30 05:58:14;;;;;;;4.55;2.95;;;;;;;12.83;70.74;99622.61;1820633;76;21194;-87
2022/10/30 06:00:43;;;;;;;5.35;2.92;;;;;;;12.84;70.86;99616.76;1793359;78;21009;-84
2022/10/30 06:03:11;;;;;;;5.08;2.80;;;;;;;12.86;70.98;99622.22;1824293;77;21219;-82
2022/10/30 06:05:44;;;;;;;5.70;3.45;;;;;;;13.00;70.82;99620.56;1815777;79;21042;-86
2022/10/30 06:08:10;;;;;;;4.78;3.10;;;;;;;13.07;70.80;99622.78;1814057;79;21005;-85
2022/10/30 06:13:00;;;;;;;5.53;2.85;;;;;;;13.14;70.09;99629.55;1793385;79;28029;-83
2022/10/30 06:15:37;;;;;;;5.75;2.77;;;;;;;13.10;70.00;99630.42;1751710;80;20989;-84
2022/10/30 06:18:04;;;;;;;5.53;3.00;;;;;;;13.11;69.72;99640.58;1751894;80;21775;-77
2022/10/30 06:20:33;;;;;;;7.25;3.40;;;;;;;13.08;69.69;99639.12;1740948;80;21086;-81
2022/10/30 06:23:19;;;;;;;5.90;3.10;;;;;;;13.06;69.91;99638.48;1748593;81;21070;-82
2022/10/30 06:25:48;;;;;;;6.50;3.00;;;;;;;13.04;70.05;99638.33;1719815;81;20988;-81
2022/10/30 06:28:23;;;;;;;5.00;3.10;;;;;;;13.00;70.29;99643.23;1732306;81;21463;-82
2022/10/30 06:30:54;;;;;;;5.40;3.58;;;;;;;13.00;70.10;99644.56;1699821;81;21035;-80
2022/10/30 06:33:21;;;;;;;7.87;2.60;;;;;;;12.99;69.79;99631.72;1725853;81;21024;-83
2022/10/30 06:35:50;;;;;;;4.67;3.00;;;;;;;12.99;69.07;99634.38;1722405;81;21097;-81
2022/10/30 06:38:18;;;;;;;7.90;3.20;;;;;;;12.99;68.36;99638.89;1738714;81;21026;-80
2022/10/30 06:40:48;;;;;;;6.50;3.22;;;;;;;12.98;68.04;99637.26;1713753;81;20990;-79
2022/10/30 06:43:19;;;;;;;3.27;2.35;;;;;;;12.97;67.78;99643.59;1695468;83;21088;-80
2022/10/30 06:45:49;;;;;;;6.00;2.92;;;;;;;12.96;67.35;99644.11;1718630;81;21529;-79
2022/10/30 06:48:17;;;;;;;3.72;2.60;;;;;;;12.94;67.20;99645.28;1723158;81;21001;-79
2022/10/30 06:50:49;;;;;;;7.00;3.12;;;;;;;12.91;67.03;99643.83;1719555;83;21026;-82
2022/10/30 06:53:16;;;;;;;6.15;2.35;;;;;;;12.90;67.37;99646.67;1667171;83;21086;-78
2022/10/30 06:55:43;;;;;;;5.22;2.22;;;;;;;12.91;67.34;99642.49;1731822;82;21252;-81
2022/10/30 06:58:17;;;;;;;2.65;2.30;;;;;;;12.93;67.21;99648.98;1720592;82;21089;-81
2022/10/30 07:00:49;;;;;;;5.55;2.47;;;;;;;12.96;67.25;99652.11;1705211;83;21042;-80
2022/10/30 07:03:34;;;;;;;4.30;2.58;;;;;;;12.99;67.16;99647.72;1723300;82;21029;-82
2022/10/30 07:06:01;;;;;;;5.20;2.37;;;;;;;13.02;66.72;99653.69;1718575;81;21069;-81
2022/10/30 07:08:28;;;;;;;6.03;2.72;;;;;;;13.02;66.84;99649.20;1728292;81;21612;-80
2022/10/30 07:10:57;;;;;;;4.40;2.62;;;;;;;13.04;66.79;99660.51;1714372;81;21121;-81
2022/10/30 07:13:42;;;;;;;4.65;2.02;;;;;;;13.04;66.55;99644.51;1707528;82;21066;-80
2022/10/30 07:16:19;;;;;;;3.85;1.98;;;;;;;13.04;65.95;99651.17;1694329;82;21077;-81
2022/10/30 07:18:47;;;;;;;3.83;1.90;;;;;;;13.04;65.89;99648.99;1714578;82;21041;-80
2022/10/30 07:21:16;;;;;;;3.75;2.15;;;;;;;13.07;65.58;99656.63;1678788;85;21502;-80
2022/10/30 07:23:43;;;;;;;4.05;1.60;;;;;;;13.08;65.14;99644.97;1713357;82;21059;-80
2022/10/30 07:26:23;;;;;;;4.00;1.70;;;;;;;13.06;65.21;99643.00;1724848;82;21070;-81
2022/10/30 07:28:52;;;;;;;4.37;2.15;;;;;;;13.07;65.61;99645.97;1710654;82;21121;-81
2022/10/30 07:31:20;;;;;;;3.60;1.60;;;;;;;13.11;65.60;99646.73;1666913;84;21133;-80
2022/10/30 07:33:52;;;;;;;2.77;1.63;;;;;;;13.15;65.62;99638.70;1723263;82;21666;-81
2022/10/30 07:36:23;;;;;;;4.50;2.50;;;;;;;13.22;65.48;99637.94;1714344;82;20994;-82
2022/10/30 07:38:54;;;;;;;9.65;2.05;;;;;;;13.25;65.54;99638.88;1718270;82;21029;-81
2022/10/30 07:41:22;;;;;;;2.62;1.77;;;;;;;13.27;65.53;99639.52;1712562;82;21031;-82
2022/10/30 07:43:51;;;;;;;2.85;1.57;;;;;;;13.29;65.66;99631.67;1707896;82;22052;-82
2022/10/30 07:46:19;;;;;;;5.10;2.50;;;;;;;13.32;65.52;99640.64;1682665;82;21153;-81
2022/10/30 07:49:04;;;;;;;4.70;2.33;;;;;;;13.33;65.54;99637.48;1712828;82;21015;-80
2022/10/30 07:51:39;;;;;;;6.15;3.10;;;;;;;13.33;65.62;99638.83;1686250;83;21135;-80
2022/10/30 07:54:06;;;;;;;9.28;5.58;;;;;;;13.34;65.55;99641.28;1718035;82;21101;-81
2022/10/30 07:56:33;;;;;;;7.30;3.08;;;;;;;13.34;65.63;99633.79;1658479;85;20998;-82
2022/10/30 07:59:19;;;;;;;5.42;2.47;;;;;;;13.31;65.54;99637.67;1651892;83;21971;-81
2022/10/30 08:01:48;;;;;;;6.10;2.58;;;;;;;13.28;65.77;99633.19;1708794;82;22131;-79
2022/10/30 08:04:16;;;;;;;3.60;2.00;;;;;;;13.30;65.89;99637.34;1707607;82;21510;-82
2022/10/30 08:06:43;;;;;;;8.40;3.10;;;;;;;13.32;65.75;99642.49;1697369;83;21082;-78
2022/10/30 08:09:10;;;;;;;4.42;2.20;;;;;;;13.33;65.72;99638.83;1687386;82;21121;-77
2022/10/30 08:11:37;;;;;;;3.58;1.87;;;;;;;13.34;65.75;99635.13;1684981;83;21239;-78
2022/10/30 08:14:03;;;;;;;6.25;2.72;;;;;;;13.36;65.68;99645.91;1681188;84;21042;-77
2022/10/30 08:16:30;;;;;;;4.92;2.10;;;;;;;13.39;65.54;99650.07;1715924;82;21045;-78
2022/10/30 08:18:56;;;;;;;5.80;2.12;;;;;;;13.40;65.60;99652.22;1714350;82;21002;-77
2022/10/30 08:21:24;;;;;;;5.45;2.65;;;;;;;13.36;65.54;99655.26;1691506;83;21021;-78
2022/10/30 08:24:02;;;;;;;4.45;1.98;;;;;;;13.35;65.64;99651.47;1678142;83;21687;-79
2022/10/30 08:26:31;;;;;;;6.53;2.52;;;;;;;13.34;65.73;99657.80;1685244;83;21046;-78
2022/10/30 08:28:57;;;;;;;6.40;2.08;;;;;;;13.33;65.67;99657.50;1678500;84;21050;-78
2022/10/30 08:31:26;;;;;;;4.25;1.82;;;;;;;13.33;65.68;99656.16;1677490;84;21090;-79
2022/10/30 08:33:54;;;;;;;6.45;2.17;;;;;;;13.32;65.79;99651.83;1658666;84;21031;-79
2022/10/30 08:36:26;;;;;;;3.55;1.77;;;;;;;13.35;65.68;99654.14;1668593;84;21086;-78
2022/10/30 08:38:52;;;;;;;5.58;2.62;;;;;;;13.34;65.69;99660.47;1684710;84;21554;-78
2022/10/30 08:41:21;;;;;;;3.85;2.20;;;;;;;13.32;65.68;99656.66;1667122;84;21028;-77
2022/10/30 08:43:48;;;;;;;5.25;2.85;;;;;;;13.30;65.81;99668.53;1718211;82;21115;-79
2022/10/30 08:46:17;;;;;;;3.95;2.30;;;;;;;13.28;65.90;99667.86;1718756;82;20970;-82
2022/10/30 08:48:44;;;;;;;4.50;2.05;;;;;;;13.29;66.08;99664.17;1723870;81;21884;-81
2022/10/30 08:51:10;;;;;;;4.15;2.10;;;;;;;13.34;65.98;99667.96;1726578;82;21538;-82
2022/10/30 08:53:39;;;;;;;5.12;1.95;;;;;;;13.39;65.79;99665.27;1674316;84;21614;-79
2022/10/30 08:56:07;;;;;;;4.92;2.12;;;;;;;13.41;65.68;99664.05;1675251;84;21070;-80
2022/10/30 08:58:36;;;;;;;5.92;1.90;;;;;;;13.45;65.43;99667.17;1733831;81;20982;-78
2022/10/30 09:01:03;;;;;;;3.17;1.85;;;;;;;13.47;65.37;99668.63;1726951;81;21460;-80
2022/10/30 09:03:41;;;;;;;5.70;2.37;;;;;;;13.50;65.33;99664.74;1710527;82;20998;-82
2022/10/30 09:06:14;;;;;;;5.97;2.47;;;;;;;13.54;65.30;99665.53;1719902;81;21040;-80
2022/10/30 09:08:46;;;;;;;7.35;2.55;;;;;;;13.54;65.11;99660.67;1686540;83;21006;-81
2022/10/30 09:11:18;;;;;;;9.55;2.60;;;;;;;13.52;65.12;99660.05;1711233;82;21041;-79
2022/10/30 09:13:46;;;;;;;3.75;1.87;;;;;;;13.49;65.16;99667.11;1730975;82;21245;-80
2022/10/30 09:16:12;;;;;;;4.62;1.90;;;;;;;13.49;65.17;99661.25;1712751;82;20998;-81
2022/10/30 09:18:39;;;;;;;8.28;2.77;;;;;;;13.50;65.29;99662.92;1691072;83;21243;-80
2022/10/30 09:21:07;;;;;;;3.67;1.65;;;;;;;13.54;65.15;99662.01;1672811;85;20984;-80
2022/10/30 09:23:43;;;;;;;4.30;2.20;;;;;;;13.55;65.00;99662.34;1688038;84;21108;-81
2022/10/30 09:26:28;;;;;;;6.22;2.40;;;;;;;13.56;64.91;99655.48;1664513;86;21150;-80
2022/10/30 09:28:57;;;;;;;6.75;2.47;;;;;;;13.59;65.06;99650.27;1683567;84;21013;-82
2022/10/30 09:31:42;;;;;;;6.55;2.10;;;;;;;13.65;64.75;99642.02;1681177;84;21033;-81
2022/10/30 09:34:11;;;;;;;5.55;2.37;;;;;;;13.69;64.56;99655.30;1683930;84;21095;-79
2022/10/30 09:36:45;;;;;;;3.60;2.00;;;;;;;13.69;64.40;99648.62;1691719;84;21588;-83
2022/10/30 09:39:12;;;;;;;6.53;2.50;;;;;;;13.70;64.30;99652.95;1675079;84;21263;-81
2022/10/30 09:42:35;;;;;;;5.92;1.80;;;;;;;13.68;64.41;99646.98;1665194;85;21599;-82
2022/10/30 09:45:20;;;;;;;7.05;2.15;;;;;;;13.69;64.49;99652.63;1676237;84;21039;-81
2022/10/30 09:48:26;;;;;;;5.70;2.17;;;;;;;13.68;64.64;99651.80;1695474;83;21065;-80
2022/10/30 09:51:00;;;;;;;5.08;1.85;;;;;;;13.70;64.42;99655.63;1663550;86;21072;-81
2022/10/30 09:53:55;;;;;;;3.15;2.08;;;;;;;13.64;64.43;99648.38;1689339;84;21831;-81
2022/10/30 09:56:31;;;;;;;5.62;1.47;;;;;;;13.64;64.60;99651.05;1671731;85;21181;-80
2022/10/30 09:59:34;;;;;;;6.70;2.47;;;;;;;13.62;64.55;99657.06;1658968;84;21594;-80
2022/10/30 10:02:37;;;;;;;8.93;2.70;;;;;;;13.61;64.66;99647.41;1686290;85;21012;-80
2022/10/30 10:05:18;;;;;;;4.12;2.27;;;;;;;13.63;64.69;99654.20;1684266;84;21061;-82
2022/10/30 10:08:04;;;;;;;5.22;3.00;;;;;;;13.60;64.66;99647.93;1669983;84;21284;-81
2022/10/30 10:11:00;;;;;;;6.47;3.58;;;;;;;13.60;64.67;99644.41;1691483;83;21026;-78
2022/10/30 10:13:38;;;;;;;4.17;2.05;;;;;;;13.61;64.70;99640.74;1677871;85;21098;-79
2022/10/30 10:16:19;;;;;;;7.15;2.15;;;;;;;13.64;64.68;99650.53;1664020;85;21487;-79
2022/10/30 10:19:20;;;;;;;5.37;2.00;;;;;;;13.68;64.70;99649.14;1683116;85;21022;-79
2022/10/30 10:22:00;;;;;;;3.20;1.95;;;;;;;13.68;64.37;99647.80;1681695;84;21084;-80
2022/10/30 10:24:33;;;;;;;5.22;2.20;;;;;;;13.67;64.44;99647.47;1680456;85;21065;-79
2022/10/30 10:27:11;;;;;;;5.87;2.00;;;;;;;13.69;64.47;99644.61;1681971;85;21582;-81
2022/10/30 10:29:50;;;;;;;5.95;1.90;;;;;;;13.71;64.12;99644.77;1680676;85;21032;-81
2022/10/30 10:32:51;;;;;;;4.33;2.05;;;;;;;13.70;64.11;99642.28;1683583;84;21030;-80
2022/10/30 10:35:31;;;;;;;4.22;1.85;;;;;;;13.69;64.00;99645.43;1681279;85;21147;-80
2022/10/30 10:38:21;;;;;;;4.75;2.10;;;;;;;13.73;63.64;99645.88;1661501;83;21093;-78
2022/10/30 10:41:20;;;;;;;4.17;1.90;;;;;;;13.72;63.60;99649.59;1684154;84;21043;-81
2022/10/30 10:44:26;;;;;;;5.20;1.85;;;;;;;13.73;63.68;99646.73;1676624;84;21531;-80
2022/10/30 10:47:02;;;;;;;4.95;2.15;;;;;;;13.75;63.60;99641.17;1681389;83;21170;-80
2022/10/30 10:50:16;;;;;;;3.65;1.82;;;;;;;13.61;63.58;99626.06;1677566;83;21135;-80
2022/10/30 10:52:59;;;;;;;5.28;1.92;;;;;;;13.71;63.71;99634.57;1691432;84;21061;-80
2022/10/30 10:55:29;;;;;;;4.40;1.90;;;;;;;13.71;63.87;99631.41;1706968;82;21613;-81
2022/10/30 10:58:00;;;;;;;3.55;1.70;;;;;;;13.77;63.91;99628.45;1682373;85;21502;-78
2022/10/30 11:00:27;;;;;;;4.08;2.12;;;;;;;13.81;63.72;99623.56;1720013;82;21519;-80
2022/10/30 11:03:43;;;;;;;5.40;1.90;;;;;;;13.87;63.42;99621.45;1714769;82;21302;-80
2022/10/30 11:06:22;;;;;;;3.45;1.87;;;;;;;13.86;63.36;99625.98;1725253;82;21136;-80
2022/10/30 11:08:49;;;;;;;4.35;2.20;;;;;;;13.85;63.33;99623.01;1722307;82;21241;-80
2022/10/30 11:11:16;;;;;;;7.87;2.30;;;;;;;13.88;63.32;99616.45;1684038;83;21018;-79
2022/10/30 11:13:44;;;;;;;5.72;1.85;;;;;;;13.85;63.62;99609.66;1722760;82;21026;-82
2022/10/30 11:16:29;;;;;;;5.83;1.80;;;;;;;13.86;63.76;99613.97;1669905;85;21988;-78
2022/10/30 11:19:00;;;;;;;5.17;2.08;;;;;;;13.89;63.87;99614.92;1712957;82;21023;-81
2022/10/30 11:21:29;;;;;;;4.92;2.00;;;;;;;13.92;64.02;99606.52;1663264;85;21041;-81
2022/10/30 11:23:57;;;;;;;3.92;2.22;;;;;;;13.99;63.84;99603.09;1695290;82;20983;-81
2022/10/30 11:26:30;;;;;;;5.95;2.20;;;;;;;14.01;63.48;99599.72;1721638;82;21607;-80
2022/10/30 11:29:13;;;;;;;4.28;2.10;;;;;;;14.00;63.20;99600.72;1728553;82;21940;-81
2022/10/30 11:31:42;;;;;;;6.58;2.20;;;;;;;13.99;63.16;99601.76;1713529;82;21093;-80
2022/10/30 11:34:20;;;;;;;5.30;2.02;;;;;;;13.99;62.78;99595.08;1713655;82;21054;-80
2022/10/30 11:36:50;;;;;;;4.22;1.80;;;;;;;13.96;62.92;99585.10;1680326;83;21066;-79
2022/10/30 11:39:20;;;;;;;6.15;2.20;;;;;;;13.96;62.69;99583.77;1661582;85;21562;-81
2022/10/30 11:42:11;;;;;;;6.45;1.80;;;;;;;13.93;62.49;99592.16;1680742;84;21543;-80
2022/10/30 11:44:42;;;;;;;3.37;2.02;;;;;;;13.94;62.25;99595.13;1712984;82;21058;-81
2022/10/30 11:47:10;;;;;;;3.50;1.72;;;;;;;13.95;62.45;99580.77;1723663;82;21057;-79
2022/10/30 11:49:46;;;;;;;4.50;1.85;;;;;;;14.02;62.34;99592.82;1714624;82;21093;-79
2022/10/30 11:52:16;;;;;;;5.03;1.65;;;;;;;14.07;61.96;99589.06;1708144;82;21046;-80
2022/10/30 11:54:47;;;;;;;4.62;2.00;;;;;;;14.07;62.09;99586.40;1716421;82;21245;-81
2022/10/30 11:57:21;;;;;;;6.53;1.80;;;;;;;14.11;61.82;99591.66;1716873;82;20976;-80
2022/10/30 11:59:52;;;;;;;3.98;2.15;;;;;;;14.12;61.56;99587.17;1702308;83;20988;-81